createdAt,value
2023-03-07T00:01:26.888Z,5.13
2023-03-07T00:03:55.795Z,5.17
2023-03-07T00:06:24.724Z,5.10
2023-03-07T00:08:53.863Z,5.06
2023-03-07T00:11:22.469Z,5.01
2023-03-07T00:13:50.825Z,4.89
2023-03-07T00:16:22.194Z,4.99
2023-03-07T00:18:53.150Z,5.07
2023-03-07T00:21:23.519Z,5.13
2023-03-07T00:23:54.077Z,5.23
2023-03-07T00:26:24.687Z,5.30
2023-03-07T00:28:54.779Z,5.36
2023-03-07T00:31:24.188Z,5.26
2023-03-07T00:33:53.954Z,5.19
2023-03-07T00:36:24.155Z,5.07
2023-03-07T00:38:53.237Z,4.94
2023-03-07T00:41:23.261Z,4.73
2023-03-07T00:43:52.305Z,4.71
2023-03-07T00:46:22.410Z,4.57
2023-03-07T00:48:51.282Z,4.37
2023-03-07T00:51:21.758Z,4.24
2023-03-07T00:53:50.100Z,4.16
2023-03-07T00:56:20.482Z,4.07
2023-03-07T00:58:49.628Z,4.04
2023-03-07T01:01:20.793Z,3.96
2023-03-07T01:03:50.409Z,3.90
2023-03-07T01:06:22.835Z,3.90
2023-03-07T01:08:51.212Z,3.82
2023-03-07T01:11:19.663Z,3.79
2023-03-07T01:13:48.113Z,3.78
2023-03-07T01:16:19.514Z,3.71
2023-03-07T01:18:50.907Z,3.87
2023-03-07T01:21:22.869Z,3.97
2023-03-07T01:23:51.406Z,3.97
2023-03-07T01:26:21.780Z,3.96
2023-03-07T01:28:52.552Z,4.25
2023-03-07T01:31:21.867Z,4.48
2023-03-07T01:33:51.570Z,4.62
2023-03-07T01:36:25.475Z,4.69
2023-03-07T01:38:56.632Z,4.68
2023-03-07T01:41:29.774Z,4.69
2023-03-07T01:43:58.049Z,4.82
2023-03-07T01:46:47.231Z,4.96
2023-03-07T01:49:24.083Z,5.11
2023-03-07T01:51:59.137Z,5.14
2023-03-07T01:54:28.567Z,4.92
2023-03-07T01:56:57.333Z,4.73
2023-03-07T01:59:31.057Z,4.66
2023-03-07T02:02:04.845Z,4.64
2023-03-07T02:04:38.182Z,4.52
2023-03-07T02:07:10.167Z,4.51
2023-03-07T02:09:40.142Z,4.72
2023-03-07T02:12:10.223Z,4.91
2023-03-07T02:14:39.524Z,4.81
2023-03-07T02:17:08.161Z,4.74
2023-03-07T02:19:49.740Z,4.62
2023-03-07T02:22:20.786Z,4.65
2023-03-07T02:24:54.436Z,4.81
2023-03-07T02:27:25.930Z,4.94
2023-03-07T02:29:54.536Z,4.99
2023-03-07T02:32:23.178Z,5.12
2023-03-07T02:34:51.570Z,5.20
2023-03-07T02:37:23.885Z,5.21
2023-03-07T02:39:52.291Z,5.19
2023-03-07T02:42:25.966Z,5.20
2023-03-07T02:44:58.858Z,5.20
2023-03-07T02:47:27.729Z,5.26
2023-03-07T02:49:56.060Z,5.24
2023-03-07T02:52:25.310Z,5.28
2023-03-07T02:54:53.737Z,5.23
2023-03-07T02:57:22.026Z,5.17
2023-03-07T02:59:54.665Z,5.11
2023-03-07T03:02:23.142Z,5.07
2023-03-07T03:04:51.694Z,5.02
2023-03-07T03:07:20.061Z,5.03
2023-03-07T03:09:48.506Z,5.05
2023-03-07T03:12:17.011Z,5.04
2023-03-07T03:14:45.339Z,5.06
2023-03-07T03:17:15.206Z,5.21
2023-03-07T03:19:43.846Z,5.30
2023-03-07T03:22:12.371Z,5.31
2023-03-07T03:24:41.682Z,5.09
2023-03-07T03:27:10.856Z,4.88
2023-03-07T03:29:39.653Z,4.65
2023-03-07T03:32:08.831Z,4.50
2023-03-07T03:34:39.112Z,4.30
2023-03-07T03:37:08.020Z,4.18
2023-03-07T03:39:36.340Z,4.05
2023-03-07T03:42:06.338Z,3.90
2023-03-07T03:44:34.730Z,3.85
2023-03-07T03:47:04.269Z,3.73
2023-03-07T03:49:33.208Z,3.69
2023-03-07T03:52:02.930Z,3.59
2023-03-07T03:54:31.229Z,3.55
2023-03-07T03:56:59.612Z,3.47
2023-03-07T03:59:28.159Z,3.43
2023-03-07T04:01:56.598Z,3.45
2023-03-07T04:04:25.139Z,3.45
2023-03-07T04:06:53.626Z,3.46
2023-03-07T04:09:24.367Z,3.46
2023-03-07T04:11:52.822Z,3.36
2023-03-07T04:14:21.188Z,3.32
2023-03-07T04:16:49.591Z,3.28
2023-03-07T04:19:18.221Z,3.24
2023-03-07T04:21:46.656Z,3.17
2023-03-07T04:24:14.960Z,3.16
2023-03-07T04:26:44.756Z,3.14
2023-03-07T04:29:13.233Z,3.14
2023-03-07T04:31:41.887Z,3.16
2023-03-07T04:34:10.434Z,3.23
2023-03-07T04:36:38.859Z,3.12
2023-03-07T04:39:07.228Z,3.14
2023-03-07T04:41:35.528Z,3.16
2023-03-07T04:44:05.595Z,3.19
2023-03-07T04:46:33.899Z,3.23
2023-03-07T04:49:02.467Z,3.27
2023-03-07T04:51:31.178Z,3.31
2023-03-07T04:53:59.571Z,3.34
2023-03-07T04:56:28.130Z,3.42
2023-03-07T04:58:56.419Z,3.48
2023-03-07T05:01:26.189Z,3.61
2023-03-07T05:03:55.650Z,3.76
2023-03-07T05:06:24.874Z,3.95
2023-03-07T05:08:53.218Z,4.19
2023-03-07T05:11:22.713Z,4.46
2023-03-07T05:13:51.001Z,4.73
2023-03-07T05:16:19.383Z,4.91
2023-03-07T05:18:49.348Z,5.07
2023-03-07T05:21:17.799Z,5.26
2023-03-07T05:23:46.152Z,5.45
2023-03-07T05:26:14.529Z,5.67
2023-03-07T05:28:42.861Z,5.84
2023-03-07T05:31:11.321Z,6.09
2023-03-07T05:33:42.734Z,6.42
2023-03-07T05:36:12.530Z,6.75
2023-03-07T05:38:40.976Z,6.99
2023-03-07T05:41:09.428Z,7.72
2023-03-07T05:43:37.885Z,8.46
2023-03-07T05:46:06.586Z,8.99
2023-03-07T05:48:34.990Z,9.44
2023-03-07T05:51:03.441Z,9.71
2023-03-07T05:53:33.235Z,9.88
2023-03-07T05:56:01.637Z,9.96
2023-03-07T05:58:30.178Z,10.10
2023-03-07T06:00:58.522Z,10.59
2023-03-07T06:03:26.949Z,11.32
2023-03-07T06:05:55.287Z,11.47
2023-03-07T06:08:23.743Z,11.40
2023-03-07T06:10:53.748Z,11.87
2023-03-07T06:13:24.457Z,12.41
2023-03-07T06:15:53.922Z,12.71
2023-03-07T06:18:23.990Z,13.14
2023-03-07T06:20:59.960Z,12.86
2023-03-07T06:23:29.130Z,13.10
2023-03-07T06:26:02.225Z,12.94
2023-03-07T06:28:32.796Z,12.23
2023-03-07T06:31:01.467Z,13.03
2023-03-07T06:33:30.426Z,13.77
2023-03-07T06:35:58.781Z,13.64
2023-03-07T06:38:28.087Z,13.55
2023-03-07T06:40:57.554Z,13.70
2023-03-07T06:43:27.350Z,13.86
2023-03-07T06:45:55.871Z,13.21
2023-03-07T06:48:24.430Z,13.08
2023-03-07T06:50:52.900Z,12.80
2023-03-07T06:53:21.510Z,12.41
2023-03-07T06:55:50.994Z,12.13
2023-03-07T06:58:19.785Z,11.63
2023-03-07T07:00:49.597Z,11.33
2023-03-07T07:03:20.728Z,11.26
2023-03-07T07:05:49.102Z,11.12
2023-03-07T07:08:17.396Z,11.20
2023-03-07T07:10:46.945Z,11.15
2023-03-07T07:13:15.239Z,10.98
2023-03-07T07:15:43.601Z,10.86
2023-03-07T07:18:15.197Z,10.71
2023-03-07T07:20:44.409Z,10.68
2023-03-07T07:23:12.797Z,10.61
2023-03-07T07:25:41.094Z,10.68
2023-03-07T07:28:09.570Z,10.81
2023-03-07T07:30:37.904Z,10.92
2023-03-07T07:33:06.341Z,10.92
2023-03-07T07:35:36.099Z,10.98
2023-03-07T07:38:04.718Z,10.97
2023-03-07T07:40:33.059Z,11.11
2023-03-07T07:43:01.377Z,11.24
2023-03-07T07:45:29.675Z,11.29
2023-03-07T07:47:58.092Z,11.50
2023-03-07T07:50:26.413Z,11.45
2023-03-07T07:52:56.205Z,11.55
2023-03-07T07:55:25.086Z,11.59
2023-03-07T07:57:54.161Z,11.74
2023-03-07T08:00:22.998Z,11.76
2023-03-07T08:02:52.211Z,12.01
2023-03-07T08:05:21.570Z,12.21
2023-03-07T08:07:50.968Z,12.30
2023-03-07T08:10:21.882Z,12.39
2023-03-07T08:12:52.238Z,12.34
2023-03-07T08:15:23.017Z,12.09
2023-03-07T08:17:52.609Z,12.31
2023-03-07T08:20:22.578Z,12.54
2023-03-07T08:22:53.078Z,12.34
2023-03-07T08:25:25.646Z,12.39
2023-03-07T08:27:55.524Z,12.35
2023-03-07T08:30:24.954Z,12.22
2023-03-07T08:32:54.544Z,12.14
2023-03-07T08:35:23.768Z,12.15
2023-03-07T08:37:55.985Z,12.31
2023-03-07T08:40:26.313Z,12.04
2023-03-07T08:42:55.358Z,11.86
2023-03-07T08:45:24.159Z,11.89
2023-03-07T08:47:54.571Z,11.95
2023-03-07T08:50:23.468Z,12.11
2023-03-07T08:52:51.821Z,12.15
2023-03-07T08:55:20.580Z,12.14
2023-03-07T08:57:50.476Z,12.05
2023-03-07T09:00:19.685Z,11.45
2023-03-07T09:02:48.138Z,11.16
2023-03-07T09:05:16.547Z,11.41
2023-03-07T09:07:44.980Z,11.59
2023-03-07T09:10:13.394Z,11.66
2023-03-07T09:12:41.748Z,11.74
2023-03-07T09:15:12.516Z,11.92
2023-03-07T09:17:41.051Z,11.86
2023-03-07T09:20:11.995Z,11.77
2023-03-07T09:22:40.276Z,11.69
2023-03-07T09:25:09.439Z,11.74
2023-03-07T09:27:37.817Z,11.97
2023-03-07T09:30:07.381Z,12.16
2023-03-07T09:32:37.584Z,12.00
2023-03-07T09:35:06.698Z,11.74
2023-03-07T09:37:34.954Z,11.64
2023-03-07T09:40:05.164Z,11.50
2023-03-07T09:42:41.517Z,11.44
2023-03-07T09:45:22.750Z,11.40
2023-03-07T09:48:10.173Z,11.65
2023-03-07T09:50:45.636Z,11.68
2023-03-07T09:53:21.776Z,11.78
2023-03-07T09:55:52.882Z,11.77
2023-03-07T09:58:24.945Z,11.81
2023-03-07T10:01:00.046Z,11.67
2023-03-07T10:03:43.004Z,11.44
2023-03-07T10:06:16.020Z,11.30
2023-03-07T10:08:44.511Z,11.36
2023-03-07T10:11:24.851Z,11.39
2023-03-07T10:14:10.160Z,11.52
2023-03-07T10:16:46.646Z,11.72
2023-03-07T10:19:26.615Z,11.78
2023-03-07T10:22:04.835Z,12.03
2023-03-07T10:24:49.116Z,12.23
2023-03-07T10:27:17.685Z,12.22
2023-03-07T10:29:48.759Z,12.17
2023-03-07T10:32:33.414Z,12.05
2023-03-07T10:35:16.250Z,11.95
2023-03-07T10:37:50.488Z,11.88
2023-03-07T10:40:26.932Z,11.67
2023-03-07T10:42:56.408Z,11.67
2023-03-07T10:45:24.889Z,11.78
2023-03-07T10:47:53.240Z,12.05
2023-03-07T10:50:32.633Z,12.00
2023-03-07T10:53:03.731Z,11.74
2023-03-07T10:55:43.016Z,11.92
2023-03-07T10:58:16.950Z,11.96
2023-03-07T11:00:45.847Z,11.76
2023-03-07T11:03:28.255Z,11.63
2023-03-07T11:06:00.024Z,11.86
2023-03-07T11:08:31.893Z,11.89
2023-03-07T11:11:01.286Z,11.68
2023-03-07T11:13:30.412Z,11.40
2023-03-07T11:16:17.877Z,11.28
2023-03-07T11:18:46.491Z,10.98
2023-03-07T11:21:33.766Z,10.61
2023-03-07T11:24:04.857Z,10.65
2023-03-07T11:26:40.481Z,10.81
2023-03-07T11:29:10.593Z,10.96
2023-03-07T11:31:53.167Z,10.92
2023-03-07T11:34:45.306Z,11.03
2023-03-07T11:37:33.177Z,11.24
2023-03-07T11:40:19.859Z,11.27
2023-03-07T11:43:00.600Z,11.21
2023-03-07T11:45:40.150Z,11.43
2023-03-07T11:48:20.329Z,11.69
2023-03-07T11:50:54.565Z,11.74
2023-03-07T11:53:44.616Z,11.64
2023-03-07T11:56:26.225Z,11.78
2023-03-07T11:59:36.590Z,11.83
2023-03-07T12:02:22.330Z,11.93
2023-03-07T12:05:21.570Z,12.10
2023-03-07T12:08:04.703Z,12.04
2023-03-07T12:10:50.175Z,12.09
2023-03-07T12:13:31.954Z,12.16
2023-03-07T12:16:09.365Z,12.17
2023-03-07T12:19:02.327Z,12.01
2023-03-07T12:21:46.091Z,11.92
2023-03-07T12:24:19.253Z,11.78
2023-03-07T12:26:55.300Z,11.69
2023-03-07T12:29:35.805Z,11.55
2023-03-07T12:32:11.171Z,11.37
2023-03-07T12:34:45.297Z,11.19
2023-03-07T12:37:17.997Z,10.98
2023-03-07T12:39:51.880Z,10.98
2023-03-07T12:42:32.302Z,10.88
2023-03-07T12:45:06.322Z,10.86
2023-03-07T12:47:50.538Z,10.80
2023-03-07T12:50:25.096Z,10.58
2023-03-07T12:52:57.732Z,10.64
2023-03-07T12:55:30.842Z,10.77
2023-03-07T12:58:08.529Z,10.73
2023-03-07T13:00:41.527Z,10.84
2023-03-07T13:03:18.356Z,10.69
2023-03-07T13:05:47.062Z,10.53
2023-03-07T13:08:23.560Z,10.51
2023-03-07T13:10:52.461Z,10.55
2023-03-07T13:13:57.104Z,10.64
2023-03-07T13:16:41.147Z,10.73
2023-03-07T13:19:49.491Z,10.75
2023-03-07T13:23:00.260Z,10.78
2023-03-07T13:25:57.251Z,11.00
2023-03-07T13:28:52.539Z,11.17
2023-03-07T13:34:46.980Z,11.74
2023-03-07T13:37:45.562Z,11.93
2023-03-07T13:40:39.290Z,12.04
2023-03-07T13:43:57.946Z,12.14
2023-03-07T13:46:51.257Z,12.32
2023-03-07T13:49:45.657Z,12.31
2023-03-07T13:52:39.247Z,12.45
2023-03-07T13:55:26.298Z,12.46
2023-03-07T13:57:58.237Z,12.47
2023-03-07T14:00:32.587Z,12.43
2023-03-07T14:03:01.074Z,12.54
2023-03-07T14:05:34.750Z,12.68
2023-03-07T14:08:03.850Z,12.69
2023-03-07T14:10:33.155Z,12.57
2023-03-07T14:13:29.707Z,12.48
2023-03-07T14:16:25.218Z,12.47
2023-03-07T14:19:04.482Z,12.05
2023-03-07T14:21:45.729Z,11.97
2023-03-07T14:24:27.709Z,11.96
2023-03-07T14:27:00.876Z,11.86
2023-03-07T14:29:31.120Z,11.79
2023-03-07T14:32:01.134Z,11.74
2023-03-07T14:34:33.140Z,11.63
2023-03-07T14:37:06.572Z,11.54
2023-03-07T14:39:49.902Z,11.35
2023-03-07T14:42:27.111Z,11.27
2023-03-07T14:45:20.158Z,11.10
2023-03-07T14:48:10.849Z,10.98
2023-03-07T14:50:44.341Z,10.86
2023-03-07T14:53:21.923Z,10.76
2023-03-07T14:55:52.788Z,10.84
2023-03-07T14:58:24.492Z,10.73
2023-03-07T15:01:00.635Z,10.60
2023-03-07T15:03:29.811Z,10.54
2023-03-07T15:05:59.923Z,10.53
2023-03-07T15:08:32.075Z,10.60
2023-03-07T15:11:06.529Z,10.46
2023-03-07T15:13:39.729Z,10.37
2023-03-07T15:16:13.843Z,10.31
2023-03-07T15:18:45.992Z,10.25
2023-03-07T15:21:20.839Z,10.24
2023-03-07T15:23:55.260Z,10.06
2023-03-07T15:26:26.108Z,9.94
2023-03-07T15:29:01.513Z,9.71
2023-03-07T15:31:33.966Z,9.54
2023-03-07T15:34:13.287Z,9.45
2023-03-07T15:36:41.768Z,9.46
2023-03-07T15:39:33.566Z,9.43
2023-03-07T15:42:07.534Z,9.33
2023-03-07T15:44:36.504Z,9.40
2023-03-07T15:47:14.002Z,9.42
2023-03-07T15:49:44.218Z,9.45
2023-03-07T15:52:28.114Z,9.52
2023-03-07T15:54:59.625Z,9.52
2023-03-07T15:57:32.690Z,9.44
2023-03-07T16:00:02.971Z,9.47
2023-03-07T16:02:47.414Z,9.46
2023-03-07T16:05:33.087Z,9.32
2023-03-07T16:08:01.627Z,9.17
2023-03-07T16:10:33.026Z,9.07
2023-03-07T16:13:03.929Z,9.03
2023-03-07T16:15:32.524Z,9.11
2023-03-07T16:18:00.885Z,8.79
2023-03-07T16:20:30.323Z,8.86
2023-03-07T16:22:59.016Z,8.67
2023-03-07T16:25:32.179Z,8.50
2023-03-07T16:28:01.165Z,8.41
2023-03-07T16:30:30.577Z,8.35
2023-03-07T16:32:58.903Z,8.24
2023-03-07T16:35:29.271Z,8.30
2023-03-07T16:37:57.733Z,8.28
2023-03-07T16:40:27.333Z,8.10
2023-03-07T16:42:57.058Z,8.04
2023-03-07T16:45:27.778Z,8.03
2023-03-07T16:47:59.574Z,8.03
2023-03-07T16:50:30.068Z,7.95
2023-03-07T16:52:58.490Z,8.10
2023-03-07T16:55:28.548Z,8.20
2023-03-07T16:58:03.057Z,8.05
2023-03-07T17:00:31.984Z,7.99
2023-03-07T17:03:02.314Z,8.03
2023-03-07T17:05:30.879Z,8.06
2023-03-07T17:08:00.377Z,8.10
2023-03-07T17:10:29.786Z,8.19
2023-03-07T17:13:01.527Z,8.29
2023-03-07T17:15:32.323Z,8.32
2023-03-07T17:18:01.651Z,8.38
2023-03-07T17:20:30.155Z,8.42
2023-03-07T17:22:58.532Z,8.42
2023-03-07T17:25:28.433Z,8.38
2023-03-07T17:28:02.672Z,8.33
2023-03-07T17:30:33.211Z,8.33
2023-03-07T17:33:02.366Z,8.27
2023-03-07T17:35:30.987Z,8.24
2023-03-07T17:37:59.628Z,8.28
2023-03-07T17:40:28.156Z,8.21
2023-03-07T17:42:57.542Z,8.13
2023-03-07T17:45:27.312Z,8.05
2023-03-07T17:47:56.735Z,8.04
2023-03-07T17:50:25.715Z,8.07
2023-03-07T17:52:55.542Z,8.21
2023-03-07T17:55:26.194Z,8.24
2023-03-07T17:57:54.806Z,8.49
2023-03-07T18:00:24.280Z,8.79
2023-03-07T18:02:54.143Z,8.77
2023-03-07T18:05:26.385Z,8.84
2023-03-07T18:07:55.358Z,9.05
2023-03-07T18:10:23.988Z,9.19
2023-03-07T18:12:53.965Z,9.21
2023-03-07T18:15:23.563Z,9.27
2023-03-07T18:17:53.384Z,9.70
2023-03-07T18:20:22.671Z,9.97
2023-03-07T18:22:51.408Z,10.16
2023-03-07T18:25:20.176Z,10.12
2023-03-07T18:27:48.842Z,10.05
2023-03-07T18:30:17.964Z,10.05
2023-03-07T18:32:46.441Z,10.28
2023-03-07T18:35:16.850Z,10.34
2023-03-07T18:37:45.717Z,10.34
2023-03-07T18:40:15.010Z,10.39
2023-03-07T18:42:43.713Z,10.43
2023-03-07T18:45:13.345Z,10.38
2023-03-07T18:47:41.676Z,10.27
2023-03-07T18:50:11.704Z,10.26
2023-03-07T18:52:41.592Z,10.41
2023-03-07T18:55:10.954Z,10.44
2023-03-07T18:57:39.388Z,10.49
2023-03-07T19:00:11.420Z,10.50
2023-03-07T19:02:40.290Z,10.51
2023-03-07T19:05:10.803Z,10.41
2023-03-07T19:07:40.731Z,10.35
2023-03-07T19:10:10.220Z,10.31
2023-03-07T19:12:38.658Z,10.29
2023-03-07T19:15:08.048Z,10.43
2023-03-07T19:17:41.204Z,10.32
2023-03-07T19:20:11.076Z,10.18
2023-03-07T19:22:40.862Z,10.02
2023-03-07T19:25:10.121Z,9.87
2023-03-07T19:27:38.693Z,9.99
2023-03-07T19:30:08.244Z,10.06
2023-03-07T19:32:36.640Z,10.08
2023-03-07T19:35:06.633Z,10.11
2023-03-07T19:37:36.797Z,10.02
2023-03-07T19:40:08.389Z,9.96
2023-03-07T19:42:36.935Z,9.99
2023-03-07T19:45:07.144Z,10.03
2023-03-07T19:47:35.509Z,9.94
2023-03-07T19:50:03.838Z,9.88
2023-03-07T19:52:32.291Z,10.00
2023-03-07T19:55:00.764Z,10.02
2023-03-07T19:57:30.586Z,9.95
2023-03-07T19:59:58.945Z,9.80
2023-03-07T20:02:29.463Z,9.81
2023-03-07T20:04:58.932Z,9.67
2023-03-07T20:07:27.391Z,9.74
2023-03-07T20:09:55.783Z,9.74
2023-03-07T20:12:24.208Z,9.51
2023-03-07T20:14:54.161Z,9.32
2023-03-07T20:17:22.569Z,9.29
2023-03-07T20:19:52.006Z,9.36
2023-03-07T20:22:20.776Z,9.19
2023-03-07T20:24:51.049Z,9.21
2023-03-07T20:27:21.973Z,9.33
2023-03-07T20:29:50.532Z,9.43
2023-03-07T20:32:20.809Z,9.48
2023-03-07T20:34:52.840Z,9.46
2023-03-07T20:37:21.405Z,9.45
2023-03-07T20:39:49.780Z,9.37
2023-03-07T20:42:18.087Z,9.40
2023-03-07T20:44:46.607Z,9.50
2023-03-07T20:47:14.998Z,9.60
2023-03-07T20:49:45.290Z,9.59
2023-03-07T20:52:14.202Z,9.60
2023-03-07T20:54:44.192Z,9.58
2023-03-07T20:57:12.602Z,9.52
2023-03-07T20:59:40.928Z,9.54
2023-03-07T21:02:09.403Z,9.48
2023-03-07T21:04:37.971Z,9.39
2023-03-07T21:07:07.650Z,9.36
2023-03-07T21:09:36.120Z,9.24
2023-03-07T21:12:05.487Z,9.20
2023-03-07T21:14:33.846Z,9.19
2023-03-07T21:17:04.093Z,9.14
2023-03-07T21:19:32.484Z,9.15
2023-03-07T21:22:00.936Z,9.22
2023-03-07T21:24:30.722Z,9.21
2023-03-07T21:26:59.416Z,9.15
2023-03-07T21:29:27.739Z,9.10
2023-03-07T21:31:56.161Z,9.02
2023-03-07T21:34:24.567Z,8.92
2023-03-07T21:36:56.287Z,8.82
2023-03-07T21:39:25.987Z,8.72
2023-03-07T21:41:56.074Z,8.60
2023-03-07T21:44:24.450Z,8.37
2023-03-07T21:46:52.780Z,8.17
2023-03-07T21:49:22.287Z,8.05
2023-03-07T21:51:50.710Z,7.92
2023-03-07T21:54:19.075Z,7.74
2023-03-07T21:56:47.545Z,7.57
2023-03-07T21:59:17.298Z,7.45
2023-03-07T22:01:45.629Z,7.32
2023-03-07T22:04:14.005Z,7.39
2023-03-07T22:06:42.433Z,7.49
2023-03-07T22:09:10.754Z,7.32
2023-03-07T22:11:39.137Z,7.23
2023-03-07T22:14:07.532Z,7.22
2023-03-07T22:16:37.354Z,7.21
2023-03-07T22:19:05.726Z,7.25
2023-03-07T22:21:34.869Z,7.34
2023-03-07T22:24:03.330Z,7.34
2023-03-07T22:26:32.939Z,7.28
2023-03-07T22:29:02.810Z,7.30
2023-03-07T22:31:31.547Z,7.33
2023-03-07T22:34:01.459Z,7.27
2023-03-07T22:36:29.932Z,7.27
2023-03-07T22:38:58.610Z,7.26
2023-03-07T22:41:27.292Z,7.20
2023-03-07T22:43:55.928Z,7.10
2023-03-07T22:46:24.665Z,7.14
2023-03-07T22:48:54.229Z,7.18
2023-03-07T22:51:25.577Z,7.28
2023-03-07T22:53:54.076Z,7.21
2023-03-07T22:56:24.958Z,7.04
2023-03-07T22:58:53.443Z,6.91
2023-03-07T23:01:23.545Z,6.85
2023-03-07T23:03:52.744Z,6.77
2023-03-07T23:06:24.408Z,6.72
2023-03-07T23:08:54.715Z,6.74
2023-03-07T23:11:25.636Z,6.77
2023-03-07T23:13:54.705Z,6.84
2023-03-07T23:16:24.438Z,6.87
2023-03-07T23:18:54.992Z,6.83
2023-03-07T23:21:27.657Z,6.78
2023-03-07T23:23:57.199Z,6.71
2023-03-07T23:26:27.796Z,6.59
2023-03-07T23:28:56.451Z,6.48
2023-03-07T23:31:26.533Z,6.42
2023-03-07T23:33:57.176Z,6.36
2023-03-07T23:36:29.017Z,6.33
2023-03-07T23:38:58.296Z,6.30
2023-03-07T23:41:27.163Z,6.27
2023-03-07T23:43:56.396Z,6.16
2023-03-07T23:46:25.337Z,6.10
2023-03-07T23:48:54.184Z,6.07
2023-03-07T23:51:22.957Z,6.07
2023-03-07T23:53:52.883Z,5.98
2023-03-07T23:56:21.639Z,5.81
2023-03-07T23:58:51.534Z,5.73
